createdAt,value
2019-04-27T00:04:52.836Z,21.10
2019-04-27T00:10:03.334Z,19.30
2019-04-27T00:15:13.189Z,18.80
2019-04-27T00:20:23.985Z,19.87
2019-04-27T00:30:41.424Z,20.30
2019-04-27T00:35:51.177Z,20.35
2019-04-27T00:41:00.869Z,21.07
2019-04-27T00:46:10.372Z,21.60
2019-04-27T00:51:18.426Z,21.05
2019-04-27T00:56:28.433Z,21.07
2019-04-27T01:01:38.149Z,19.20
2019-04-27T01:06:46.550Z,20.45
2019-04-27T01:11:55.616Z,19.02
2019-04-27T01:17:03.382Z,18.95
2019-04-27T01:22:11.221Z,18.42
2019-04-27T01:27:20.728Z,17.82
2019-04-27T01:32:30.018Z,16.93
2019-04-27T01:37:38.768Z,18.17
2019-04-27T01:42:48.396Z,18.65
2019-04-27T01:47:56.956Z,16.95
2019-04-27T01:53:05.519Z,16.85
2019-04-27T01:58:14.377Z,17.60
2019-04-27T02:03:24.327Z,17.10
2019-04-27T02:08:33.278Z,17.02
2019-04-27T02:13:41.643Z,17.85
2019-04-27T02:18:50.277Z,17.87
2019-04-27T02:23:59.839Z,19.03
2019-04-27T02:29:09.337Z,16.32
2019-04-27T02:34:20.271Z,17.17
2019-04-27T02:39:29.756Z,20.40
2019-04-27T02:44:40.503Z,20.87
2019-04-27T02:49:50.702Z,21.02
2019-04-27T02:54:59.355Z,21.23
2019-04-27T03:00:10.496Z,21.68
2019-04-27T03:05:20.509Z,21.68
2019-04-27T03:15:40.301Z,21.12
2019-04-27T03:20:50.337Z,22.90
2019-04-27T03:26:00.321Z,22.80
2019-04-27T03:31:12.686Z,20.02
2019-04-27T03:41:29.199Z,20.88
2019-04-27T03:46:39.742Z,22.05
2019-04-27T03:51:49.902Z,17.77
2019-04-27T03:57:02.406Z,18.52
2019-04-27T04:02:10.140Z,18.87
2019-04-27T04:07:19.713Z,19.05
2019-04-27T04:12:30.244Z,16.90
2019-04-27T04:17:40.254Z,15.30
2019-04-27T04:22:51.228Z,17.23
2019-04-27T04:28:00.587Z,15.65
2019-04-27T04:33:10.184Z,16.17
2019-04-27T04:38:20.596Z,16.07
2019-04-27T04:43:30.209Z,16.12
2019-04-27T04:48:40.327Z,17.40
2019-04-27T04:53:48.893Z,17.20
2019-04-27T04:59:00.016Z,18.65
2019-04-27T05:04:29.058Z,17.98
2019-04-27T05:09:37.138Z,18.57
2019-04-27T05:14:45.670Z,18.17
2019-04-27T05:19:55.194Z,17.85
2019-04-27T05:25:03.594Z,18.57
2019-04-27T05:30:12.297Z,18.23
2019-04-27T05:35:20.252Z,18.65
2019-04-27T05:40:29.140Z,19.37
2019-04-27T05:50:51.445Z,17.02
2019-04-27T05:55:59.340Z,16.45
2019-04-27T06:01:11.257Z,16.20
2019-04-27T06:06:19.931Z,15.75
2019-04-27T06:11:28.734Z,15.25
2019-04-27T06:16:36.870Z,15.88
2019-04-27T06:22:05.095Z,14.93
2019-04-27T06:27:13.828Z,14.98
2019-04-27T06:32:22.300Z,14.45
2019-04-27T06:37:31.087Z,13.98
2019-04-27T06:42:40.161Z,15.37
2019-04-27T06:47:51.050Z,14.70
2019-04-27T06:53:00.115Z,13.85
2019-04-27T06:58:09.001Z,14.30
2019-04-27T07:03:18.819Z,13.10
2019-04-27T07:08:28.639Z,14.73
2019-04-27T07:13:38.992Z,13.90
2019-04-27T07:18:47.275Z,15.13
2019-04-27T07:23:59.077Z,15.93
2019-04-27T07:29:09.587Z,15.85
2019-04-27T07:40:03.542Z,15.60
2019-04-27T07:45:12.032Z,16.10
2019-04-27T07:50:20.526Z,16.65
2019-04-27T07:55:29.150Z,16.60
2019-04-27T08:00:37.391Z,16.20
2019-04-27T08:05:45.699Z,15.75
2019-04-27T08:10:53.723Z,15.80
2019-04-27T08:16:02.200Z,15.48
2019-04-27T08:21:10.520Z,16.13
2019-04-27T08:26:19.956Z,15.20
2019-04-27T08:31:29.692Z,15.38
2019-04-27T08:36:39.019Z,15.55
2019-04-27T08:41:46.934Z,16.42
2019-04-27T08:46:56.579Z,16.40
2019-04-27T08:52:04.816Z,15.32
2019-04-27T08:57:13.146Z,15.13
2019-04-27T09:02:21.819Z,14.15
2019-04-27T09:07:31.833Z,14.13
2019-04-27T09:12:42.625Z,13.95
2019-04-27T09:17:52.138Z,13.68
2019-04-27T09:23:00.655Z,14.15
2019-04-27T09:28:08.898Z,16.70
2019-04-27T09:33:17.505Z,20.15
2019-04-27T09:38:26.462Z,20.30
2019-04-27T09:43:36.621Z,23.23
2019-04-27T09:53:56.256Z,21.37
2019-04-27T09:59:06.335Z,15.48
2019-04-27T10:04:15.695Z,18.20
2019-04-27T10:14:31.690Z,17.25
2019-04-27T10:19:40.408Z,15.60
2019-04-27T10:29:56.972Z,16.40
2019-04-27T10:35:07.671Z,13.50
2019-04-27T10:40:16.193Z,15.15
2019-04-27T10:45:24.521Z,14.60
2019-04-27T10:50:33.089Z,14.58
2019-04-27T10:55:41.469Z,14.40
2019-04-27T11:00:50.630Z,15.72
2019-04-27T11:06:00.052Z,14.53
2019-04-27T11:11:08.104Z,14.83
2019-04-27T11:16:15.993Z,16.02
2019-04-27T11:21:26.087Z,14.25
2019-04-27T11:26:33.790Z,15.53
2019-04-27T11:31:42.747Z,15.32
2019-04-27T11:36:55.162Z,16.60
2019-04-27T11:42:03.710Z,20.35
2019-04-27T11:47:12.462Z,19.80
2019-04-27T11:52:21.055Z,23.90
2019-04-27T11:57:29.704Z,18.37
2019-04-27T12:02:37.740Z,19.98
2019-04-27T12:07:47.745Z,24.20
2019-04-27T12:12:56.296Z,23.63
2019-04-27T12:18:08.820Z,19.53
2019-04-27T12:23:16.363Z,19.70
2019-04-27T12:28:25.560Z,19.35
2019-04-27T12:38:41.654Z,16.27
2019-04-27T12:43:49.561Z,15.23
2019-04-27T12:48:57.997Z,14.50
2019-04-27T12:54:07.556Z,13.70
2019-04-27T12:59:16.843Z,13.13
2019-04-27T13:04:25.234Z,13.37
2019-04-27T13:09:33.625Z,12.90
2019-04-27T13:14:41.702Z,13.55
2019-04-27T13:19:49.917Z,13.68
2019-04-27T13:24:58.223Z,13.45
2019-04-27T13:30:07.475Z,13.50
2019-04-27T13:35:16.045Z,13.68
2019-04-27T13:40:25.917Z,13.72
2019-04-27T13:45:36.248Z,13.33
2019-04-27T13:50:47.117Z,13.05
2019-04-27T13:55:56.769Z,12.15
2019-04-27T14:01:05.694Z,12.82
2019-04-27T14:06:14.080Z,11.85
2019-04-27T14:11:23.065Z,13.60
2019-04-27T14:16:31.351Z,12.00
2019-04-27T14:21:40.569Z,11.73
2019-04-27T14:26:48.884Z,12.50
2019-04-27T14:31:58.685Z,13.08
2019-04-27T14:37:08.546Z,12.88
2019-04-27T14:42:16.723Z,12.18
2019-04-27T14:47:25.444Z,13.43
2019-04-27T14:52:34.096Z,13.13
2019-04-27T14:57:42.588Z,12.03
2019-04-27T15:02:51.031Z,12.37
2019-04-27T15:08:01.687Z,11.40
2019-04-27T15:13:08.620Z,12.23
2019-04-27T15:18:17.225Z,12.88
2019-04-27T15:23:26.590Z,12.43
2019-04-27T15:28:35.522Z,12.05
2019-04-27T15:33:46.748Z,12.13
2019-04-27T15:38:55.517Z,12.55
2019-04-27T15:44:06.945Z,12.27
2019-04-27T15:54:22.352Z,12.53
2019-04-27T15:59:37.220Z,12.83
2019-04-27T16:04:40.103Z,14.30
2019-04-27T16:09:49.047Z,13.85
2019-04-27T16:14:58.218Z,13.10
2019-04-27T16:20:10.197Z,14.75
2019-04-27T16:25:18.651Z,14.85
2019-04-27T16:30:28.651Z,14.38
2019-04-27T16:35:38.540Z,14.93
2019-04-27T16:40:46.135Z,15.43
2019-04-27T16:45:57.962Z,15.88
2019-04-27T16:51:03.550Z,16.93
2019-04-27T16:56:15.185Z,16.05
2019-04-27T17:01:23.191Z,16.55
2019-04-27T17:06:31.299Z,16.95
2019-04-27T17:11:43.659Z,17.07
2019-04-27T17:16:50.477Z,17.25
2019-04-27T17:21:59.900Z,16.97
2019-04-27T17:27:11.654Z,17.80
2019-04-27T17:37:32.225Z,19.12
2019-04-27T17:42:37.603Z,20.17
2019-04-27T17:47:45.954Z,20.55
2019-04-27T17:52:56.837Z,21.10
2019-04-27T17:58:05.281Z,21.30
2019-04-27T18:03:17.551Z,20.37
2019-04-27T18:08:25.202Z,23.05
2019-04-27T18:13:32.494Z,23.40
2019-04-27T18:18:42.019Z,24.70
2019-04-27T18:23:55.148Z,24.57
2019-04-27T18:29:02.096Z,24.75
2019-04-27T18:34:14.970Z,24.72
2019-04-27T18:39:19.329Z,23.07
2019-04-27T18:44:30.517Z,23.27
2019-04-27T18:49:39.818Z,22.62
2019-04-27T18:54:48.070Z,23.07
2019-04-27T18:59:58.202Z,24.00
2019-04-27T19:05:08.746Z,22.73
2019-04-27T19:10:16.262Z,22.20
2019-04-27T19:15:24.610Z,22.70
2019-04-27T19:20:32.953Z,22.82
2019-04-27T19:25:42.905Z,21.02
2019-04-27T19:30:52.394Z,21.80
2019-04-27T19:36:05.942Z,21.20
2019-04-27T19:41:14.266Z,20.48
2019-04-27T19:46:22.104Z,21.30
2019-04-27T19:51:30.690Z,19.27
2019-04-27T19:56:39.049Z,19.45
2019-04-27T20:01:48.610Z,18.55
2019-04-27T20:06:57.275Z,18.50
2019-04-27T20:12:09.756Z,17.45
2019-04-27T20:17:15.653Z,17.17
2019-04-27T20:22:24.431Z,17.15
2019-04-27T20:27:44.943Z,16.87
2019-04-27T20:32:42.226Z,17.23
2019-04-27T20:37:51.857Z,16.70
2019-04-27T20:43:01.544Z,16.45
2019-04-27T20:48:11.095Z,16.37
2019-04-27T20:53:20.876Z,17.42
2019-04-27T20:58:31.010Z,16.65
2019-04-27T21:03:41.105Z,17.07
2019-04-27T21:08:51.351Z,16.55
2019-04-27T21:14:01.013Z,17.67
2019-04-27T21:19:10.953Z,17.50
2019-04-27T21:24:20.751Z,17.70
2019-04-27T21:29:28.496Z,19.20
2019-04-27T21:34:36.970Z,19.23
2019-04-27T21:39:45.086Z,19.55
2019-04-27T21:44:53.672Z,19.32
2019-04-27T21:50:01.816Z,19.95
2019-04-27T21:55:13.084Z,21.45
2019-04-27T22:00:23.985Z,21.80
2019-04-27T22:05:33.549Z,22.42
2019-04-27T22:10:41.667Z,22.60
2019-04-27T22:15:49.734Z,23.27
2019-04-27T22:20:58.271Z,23.57
2019-04-27T22:26:07.257Z,25.43
2019-04-27T22:31:15.589Z,25.32
2019-04-27T22:36:24.135Z,26.20
2019-04-27T22:41:32.388Z,25.75
2019-04-27T22:46:41.471Z,25.65
2019-04-27T22:51:51.159Z,28.73
2019-04-27T22:57:01.084Z,28.85
2019-04-27T23:02:11.778Z,28.07
2019-04-27T23:07:21.271Z,26.93
2019-04-27T23:12:31.543Z,27.07
2019-04-27T23:17:42.642Z,27.45
2019-04-27T23:22:50.274Z,28.65
2019-04-27T23:27:58.574Z,28.10
2019-04-27T23:33:06.794Z,30.10
2019-04-27T23:38:18.089Z,29.57
2019-04-27T23:43:26.234Z,37.93
2019-04-27T23:48:34.844Z,30.48
2019-04-27T23:53:42.912Z,27.93
2019-04-27T23:58:51.147Z,33.95
